Time;durP1;ratioP1;P1;durP2;ratioP2;P2;SDS_P1;SDS_P2;PMS_P1;PMS_P2;Temp;Humidity;BMP_temperature;BMP_pressure;BME280_temperature;BME280_humidity;BME280_pressure;Samples;Min_cycle;Max_cycle;Signal;HPM_P1;HPM_P2
2023/05/08 00:01:44;;;;;;;8.20;4.53;;;14.00;99.90;;;;;;5063531;28;20214;-60
2023/05/08 00:04:09;;;;;;;10.20;4.83;;;14.00;99.90;;;;;;5062469;28;20278;-61
2023/05/08 00:06:35;;;;;;;6.30;4.33;;;14.00;99.90;;;;;;5063316;28;20662;-60
2023/05/08 00:09:01;;;;;;;5.50;4.80;;;14.00;99.90;;;;;;5062885;28;20226;-60
2023/05/08 00:11:26;;;;;;;6.37;4.43;;;14.00;99.90;;;;;;5064216;28;20252;-60
2023/05/08 00:13:52;;;;;;;7.67;3.90;;;14.00;99.90;;;;;;5059872;28;20178;-61
2023/05/08 00:16:17;;;;;;;6.67;3.63;;;14.00;99.90;;;;;;5051454;28;20618;-61
2023/05/08 00:18:43;;;;;;;5.07;4.30;;;14.00;99.90;;;;;;5063245;28;20186;-60
2023/05/08 00:21:08;;;;;;;8.50;4.80;;;14.00;99.90;;;;;;5058459;28;20706;-60
2023/05/08 00:23:34;;;;;;;4.83;4.00;;;14.00;99.90;;;;;;5059897;28;20263;-60
2023/05/08 00:26:00;;;;;;;4.93;4.43;;;14.00;99.90;;;;;;5062571;28;20190;-60
2023/05/08 00:28:26;;;;;;;8.83;4.93;;;14.00;99.90;;;;;;5065643;28;20591;-60
2023/05/08 00:30:51;;;;;;;5.13;4.00;;;14.00;99.90;;;;;;5064917;28;20205;-61
2023/05/08 00:33:17;;;;;;;4.13;3.77;;;14.00;99.90;;;;;;5063613;28;20182;-60
2023/05/08 00:35:43;;;;;;;4.60;4.00;;;14.00;99.90;;;;;;5061390;28;20227;-61
2023/05/08 00:38:09;;;;;;;4.70;3.63;;;13.90;99.90;;;;;;5059125;28;20206;-63
2023/05/08 00:40:35;;;;;;;5.37;2.90;;;13.90;99.90;;;;;;5052962;28;20200;-60
2023/05/08 00:43:01;;;;;;;3.83;3.40;;;13.90;99.90;;;;;;5062326;28;20425;-61
2023/05/08 00:45:35;;;;;;;4.30;3.47;;;13.90;99.90;;;;;;5059245;28;20767;-60
2023/05/08 00:48:02;;;;;;;4.40;3.43;;;13.90;99.90;;;;;;5060785;28;20262;-60
2023/05/08 00:50:29;;;;;;;4.00;3.60;;;13.90;99.90;;;;;;5065030;28;21027;-60
2023/05/08 00:52:56;;;;;;;4.20;3.80;;;13.90;99.90;;;;;;5060003;28;20486;-61
2023/05/08 00:55:22;;;;;;;5.10;4.60;;;13.90;99.90;;;;;;5055767;28;20434;-60
2023/05/08 00:57:48;;;;;;;6.50;4.03;;;13.90;99.90;;;;;;5058135;28;20460;-60
2023/05/08 01:00:16;;;;;;;5.90;4.63;;;13.90;99.90;;;;;;5057744;28;20189;-60
2023/05/08 01:02:42;;;;;;;4.60;4.20;;;13.90;99.90;;;;;;5055058;28;20509;-60
2023/05/08 01:05:08;;;;;;;5.97;4.10;;;13.90;99.90;;;;;;5060374;28;20771;-60
2023/05/08 01:07:34;;;;;;;7.90;3.47;;;13.90;99.90;;;;;;5063794;28;20440;-60
2023/05/08 01:09:59;;;;;;;5.50;4.27;;;13.80;99.90;;;;;;5061765;28;20202;-61
2023/05/08 01:12:33;;;;;;;4.53;3.00;;;13.80;99.90;;;;;;5063440;28;20213;-60
2023/05/08 01:15:05;;;;;;;5.30;4.07;;;13.80;99.90;;;;;;5064144;28;20186;-60
2023/05/08 01:17:45;;;;;;;4.17;3.77;;;13.90;99.90;;;;;;5054813;28;20453;-60
2023/05/08 01:20:30;;;;;;;5.00;3.87;;;13.90;99.90;;;;;;5064697;28;21142;-60
2023/05/08 01:23:34;;;;;;;11.03;4.77;;;13.90;99.90;;;;;;5056213;28;20420;-61
2023/05/08 01:26:31;;;;;;;5.10;4.60;;;13.90;99.90;;;;;;5064425;28;20425;-60
2023/05/08 01:29:32;;;;;;;5.57;4.90;;;13.90;99.90;;;;;;5060050;28;20844;-60
2023/05/08 01:32:45;;;;;;;6.53;5.40;;;13.90;99.90;;;;;;5062399;28;20427;-60
2023/05/08 01:35:16;;;;;;;10.13;6.70;;;13.90;99.90;;;;;;5056869;28;20953;-60
2023/05/08 01:37:54;;;;;;;7.13;5.77;;;13.90;99.90;;;;;;5067214;28;21185;-60
2023/05/08 01:40:52;;;;;;;7.60;5.90;;;13.90;99.90;;;;;;5064531;28;20427;-60
2023/05/08 01:43:53;;;;;;;9.50;5.87;;;13.80;99.90;;;;;;5016580;28;20515;-60
2023/05/08 01:46:24;;;;;;;5.10;4.67;;;13.80;99.90;;;;;;5060967;28;20459;-60
2023/05/08 01:49:04;;;;;;;7.00;4.83;;;13.80;99.90;;;;;;5057010;28;20537;-60
2023/05/08 01:51:37;;;;;;;8.23;4.47;;;13.80;99.90;;;;;;5060511;28;20830;-60
2023/05/08 01:54:06;;;;;;;6.57;4.57;;;13.80;99.90;;;;;;5061116;28;20413;-60
2023/05/08 01:56:34;;;;;;;5.40;4.10;;;13.80;99.90;;;;;;5066147;28;20452;-60
2023/05/08 01:59:02;;;;;;;5.90;4.50;;;13.80;99.90;;;;;;5064544;28;20432;-61
2023/05/08 02:01:30;;;;;;;6.47;4.53;;;13.80;99.90;;;;;;5066002;28;20425;-60
2023/05/08 02:03:59;;;;;;;4.87;4.37;;;13.70;99.90;;;;;;5065400;28;20482;-61
2023/05/08 02:06:27;;;;;;;5.27;3.93;;;13.70;99.90;;;;;;5063429;28;20967;-60
2023/05/08 02:08:54;;;;;;;5.10;4.33;;;13.70;99.90;;;;;;5063996;28;20453;-60
2023/05/08 02:11:23;;;;;;;6.60;4.90;;;13.70;99.90;;;;;;5063858;28;20896;-60
2023/05/08 02:13:50;;;;;;;5.20;4.57;;;13.70;99.90;;;;;;5058460;28;20436;-61
2023/05/08 02:16:17;;;;;;;5.47;4.93;;;13.70;99.90;;;;;;5059425;28;20468;-60
2023/05/08 02:18:52;;;;;;;8.10;5.43;;;13.70;99.90;;;;;;5063065;28;20429;-61
2023/05/08 02:21:19;;;;;;;9.67;5.47;;;13.70;99.90;;;;;;5063381;28;20420;-60
2023/05/08 02:23:46;;;;;;;13.60;5.23;;;13.70;99.90;;;;;;5059704;28;20831;-60
2023/05/08 02:26:14;;;;;;;5.50;4.93;;;13.70;99.90;;;;;;5065885;28;20455;-60
2023/05/08 02:28:41;;;;;;;5.50;5.00;;;13.70;99.90;;;;;;5066388;28;20484;-60
2023/05/08 02:31:08;;;;;;;6.90;5.73;;;13.70;99.90;;;;;;5067355;28;20468;-61
2023/05/08 02:33:35;;;;;;;6.03;5.43;;;13.60;99.90;;;;;;5067303;28;21013;-60
2023/05/08 02:36:03;;;;;;;6.33;5.73;;;13.70;99.90;;;;;;5065062;28;20436;-60
2023/05/08 02:38:30;;;;;;;8.80;5.03;;;13.60;99.90;;;;;;5062850;28;20422;-60
2023/05/08 02:40:59;;;;;;;7.80;5.63;;;13.60;99.90;;;;;;5061453;28;20991;-60
2023/05/08 02:43:26;;;;;;;7.50;5.40;;;13.60;99.90;;;;;;5061760;28;20514;-60
2023/05/08 02:46:02;;;;;;;5.47;4.93;;;13.60;99.90;;;;;;5065580;28;20780;-60
2023/05/08 02:48:32;;;;;;;7.00;5.40;;;13.60;99.90;;;;;;5057818;28;20445;-61
2023/05/08 02:51:20;;;;;;;6.97;5.57;;;13.60;99.90;;;;;;5059496;28;20457;-61
2023/05/08 02:53:53;;;;;;;12.50;6.17;;;13.60;99.90;;;;;;5062778;28;20780;-60
2023/05/08 02:56:42;;;;;;;7.90;5.67;;;13.60;99.90;;;;;;5066977;28;20459;-60
2023/05/08 02:59:23;;;;;;;6.57;5.37;;;13.60;99.90;;;;;;5059642;28;20425;-61
2023/05/08 03:01:57;;;;;;;5.70;5.10;;;13.60;99.90;;;;;;5062203;28;20512;-61
2023/05/08 03:04:33;;;;;;;6.67;5.33;;;13.50;99.90;;;;;;5058677;28;20428;-60
2023/05/08 03:06:59;;;;;;;7.67;5.23;;;13.50;99.90;;;;;;5066857;28;20543;-60
2023/05/08 03:09:30;;;;;;;6.33;5.73;;;13.50;99.90;;;;;;5057435;28;20453;-61
2023/05/08 03:12:02;;;;;;;8.57;4.43;;;13.50;99.90;;;;;;5066274;28;21148;-60
2023/05/08 03:14:31;;;;;;;5.63;4.80;;;13.50;99.90;;;;;;5062003;28;20490;-61
2023/05/08 03:16:59;;;;;;;6.83;5.10;;;13.50;99.90;;;;;;5059060;28;20465;-60
2023/05/08 03:19:37;;;;;;;5.33;4.73;;;13.40;99.90;;;;;;5055638;28;20449;-60
2023/05/08 03:22:04;;;;;;;5.23;4.67;;;13.40;99.90;;;;;;5063122;28;20438;-60
2023/05/08 03:24:35;;;;;;;5.60;4.60;;;13.40;99.90;;;;;;5062427;28;20511;-60
2023/05/08 03:27:02;;;;;;;6.67;5.23;;;13.40;99.90;;;;;;5060841;28;20452;-60
2023/05/08 03:29:29;;;;;;;12.33;4.80;;;13.40;99.90;;;;;;5055828;28;20976;-60
2023/05/08 03:31:57;;;;;;;5.30;4.80;;;13.40;99.90;;;;;;5062235;28;20453;-60
2023/05/08 03:34:24;;;;;;;8.37;4.90;;;13.40;99.90;;;;;;5055787;28;20460;-60
2023/05/08 03:36:50;;;;;;;7.80;5.37;;;13.40;99.90;;;;;;5066613;28;20450;-61
2023/05/08 03:39:16;;;;;;;6.83;5.67;;;13.40;99.90;;;;;;5061163;28;20425;-60
2023/05/08 03:41:42;;;;;;;17.87;5.20;;;13.30;99.90;;;;;;5059804;28;20170;-60
2023/05/08 03:44:08;;;;;;;7.00;4.80;;;13.30;99.90;;;;;;5063043;28;20603;-60
2023/05/08 03:46:34;;;;;;;8.67;5.83;;;13.30;99.90;;;;;;5058120;28;20498;-60
2023/05/08 03:49:03;;;;;;;10.33;5.70;;;13.40;99.90;;;;;;5050502;28;20449;-60
2023/05/08 03:51:30;;;;;;;6.83;4.83;;;13.40;99.90;;;;;;5073060;28;20440;-59
2023/05/08 03:53:56;;;;;;;6.30;5.60;;;13.40;99.90;;;;;;5054725;28;20424;-60
2023/05/08 03:56:21;;;;;;;7.77;5.30;;;13.40;99.90;;;;;;5062796;28;20460;-60
2023/05/08 03:58:52;;;;;;;7.93;5.70;;;13.40;99.90;;;;;;5044454;28;20643;-60
2023/05/08 04:01:39;;;;;;;9.93;6.50;;;13.40;99.90;;;;;;5051391;28;20193;-61
2023/05/08 04:04:16;;;;;;;10.20;5.53;;;13.40;99.90;;;;;;5057693;28;20867;-61
2023/05/08 04:07:19;;;;;;;6.80;5.07;;;13.40;99.90;;;;;;5057295;28;20456;-60
2023/05/08 04:10:06;;;;;;;11.33;5.47;;;13.40;99.90;;;;;;5055983;28;20456;-62
2023/05/08 04:13:10;;;;;;;6.57;5.53;;;13.40;99.90;;;;;;5050969;28;20427;-60
2023/05/08 04:16:00;;;;;;;6.70;5.43;;;13.40;99.90;;;;;;5056391;28;20452;-61
2023/05/08 04:18:28;;;;;;;11.30;10.10;;;13.50;99.90;;;;;;5054117;28;21336;-59
2023/05/08 04:20:56;;;;;;;7.37;6.60;;;13.50;99.90;;;;;;5057227;28;20896;-59
2023/05/08 04:23:23;;;;;;;8.97;5.57;;;13.50;99.90;;;;;;5048642;28;20469;-58
2023/05/08 04:25:51;;;;;;;11.97;6.50;;;13.50;99.90;;;;;;5058010;28;20467;-57
2023/05/08 04:28:18;;;;;;;6.53;5.30;;;13.50;99.90;;;;;;5055040;28;20471;-58
2023/05/08 04:30:44;;;;;;;7.17;5.00;;;13.50;99.90;;;;;;5059012;28;20424;-59
2023/05/08 04:33:11;;;;;;;6.00;5.10;;;13.50;99.90;;;;;;5056815;28;20470;-58
2023/05/08 04:35:36;;;;;;;7.00;5.23;;;13.50;99.90;;;;;;5058000;28;20467;-60
2023/05/08 04:38:02;;;;;;;7.30;5.60;;;13.50;99.90;;;;;;5050375;28;20472;-59
2023/05/08 04:40:28;;;;;;;5.70;5.20;;;13.50;99.90;;;;;;5051290;28;20189;-61
2023/05/08 04:42:53;;;;;;;8.17;5.50;;;13.50;99.90;;;;;;5053969;28;20768;-60
2023/05/08 04:45:19;;;;;;;11.07;6.33;;;13.40;99.90;;;;;;5052430;28;20260;-60
2023/05/08 04:47:45;;;;;;;6.00;5.07;;;13.50;99.90;;;;;;5048678;28;20202;-60
2023/05/08 04:50:11;;;;;;;9.10;5.77;;;13.50;99.90;;;;;;5055066;28;20214;-60
2023/05/08 04:52:36;;;;;;;5.87;5.27;;;13.50;99.90;;;;;;5063816;28;21136;-60
2023/05/08 04:55:02;;;;;;;5.97;4.60;;;13.50;99.90;;;;;;5060322;28;20289;-60
2023/05/08 04:57:28;;;;;;;7.57;5.20;;;13.50;99.90;;;;;;5060287;28;20229;-60
2023/05/08 04:59:53;;;;;;;6.60;4.70;;;13.50;99.90;;;;;;5060103;28;20633;-59
2023/05/08 05:02:19;;;;;;;5.77;4.60;;;13.50;99.90;;;;;;5057327;28;20764;-60
2023/05/08 05:04:45;;;;;;;5.00;4.50;;;13.50;99.90;;;;;;5052837;28;20266;-60
2023/05/08 05:07:10;;;;;;;5.10;4.60;;;13.50;99.90;;;;;;5061836;28;20293;-60
2023/05/08 05:09:37;;;;;;;6.00;5.40;;;13.60;99.90;;;;;;5067742;28;20209;-60
2023/05/08 05:12:04;;;;;;;7.77;4.90;;;13.60;99.90;;;;;;5084112;28;20166;-60
2023/05/08 05:14:30;;;;;;;7.40;4.10;;;13.60;99.90;;;;;;5066147;28;20425;-60
2023/05/08 05:16:55;;;;;;;4.67;4.27;;;13.60;99.90;;;;;;5059048;28;20456;-60
2023/05/08 05:19:21;;;;;;;3.57;3.20;;;13.60;99.90;;;;;;5063537;28;20171;-60
2023/05/08 05:21:47;;;;;;;3.70;3.40;;;13.70;99.90;;;;;;5068885;28;20596;-60
2023/05/08 05:24:12;;;;;;;4.60;3.47;;;13.70;99.90;;;;;;5065777;28;20660;-60
2023/05/08 05:26:38;;;;;;;6.30;3.97;;;13.70;99.90;;;;;;5058325;28;20199;-60
2023/05/08 05:29:03;;;;;;;4.47;3.87;;;13.70;99.90;;;;;;5062879;28;20210;-60
2023/05/08 05:31:29;;;;;;;6.07;4.13;;;13.80;99.90;;;;;;5065266;28;20167;-60
2023/05/08 05:33:55;;;;;;;6.17;4.17;;;13.80;99.90;;;;;;5069884;28;20177;-60
2023/05/08 05:36:21;;;;;;;6.50;3.30;;;13.80;99.90;;;;;;5065245;28;20190;-60
2023/05/08 05:38:47;;;;;;;8.40;3.90;;;13.90;99.90;;;;;;5061049;28;20432;-61
2023/05/08 05:41:12;;;;;;;4.30;3.90;;;13.90;99.90;;;;;;5064708;28;20206;-60
2023/05/08 05:43:38;;;;;;;3.60;3.27;;;13.90;99.90;;;;;;5055300;28;20237;-60
2023/05/08 05:46:06;;;;;;;3.43;3.13;;;14.00;99.90;;;;;;5062301;28;20213;-60
2023/05/08 05:48:32;;;;;;;3.37;3.07;;;14.00;99.90;;;;;;5064598;28;20191;-61
2023/05/08 05:50:57;;;;;;;5.90;4.20;;;14.10;99.90;;;;;;5067759;28;20451;-60
2023/05/08 05:53:23;;;;;;;6.93;4.63;;;14.20;99.90;;;;;;5068792;28;20511;-61
2023/05/08 05:55:49;;;;;;;6.20;3.73;;;14.20;99.90;;;;;;5057954;28;20171;-61
2023/05/08 05:58:15;;;;;;;3.87;3.47;;;14.30;99.90;;;;;;5062908;28;20216;-60
2023/05/08 06:00:41;;;;;;;10.13;3.73;;;14.30;99.90;;;;;;5069084;28;20671;-61
2023/05/08 06:03:07;;;;;;;5.80;4.40;;;14.30;99.90;;;;;;5059228;28;20471;-60
2023/05/08 06:05:33;;;;;;;6.03;4.83;;;14.30;99.90;;;;;;5063647;28;20515;-60
2023/05/08 06:07:59;;;;;;;8.13;4.17;;;14.40;99.90;;;;;;5063581;28;20224;-60
2023/05/08 06:10:25;;;;;;;5.10;4.17;;;14.30;99.90;;;;;;5056563;28;20806;-60
2023/05/08 06:12:50;;;;;;;5.40;4.40;;;14.40;99.90;;;;;;5062786;28;20601;-61
2023/05/08 06:15:17;;;;;;;4.70;4.30;;;14.40;99.90;;;;;;5065790;28;20190;-61
2023/05/08 06:17:42;;;;;;;5.43;4.37;;;14.40;99.90;;;;;;5061486;28;20188;-61
2023/05/08 06:20:08;;;;;;;4.30;3.90;;;14.40;99.90;;;;;;5065941;28;20869;-61
2023/05/08 06:22:36;;;;;;;3.90;3.60;;;14.40;99.90;;;;;;5058360;28;20179;-60
2023/05/08 06:25:02;;;;;;;4.93;3.90;;;14.40;99.90;;;;;;5061376;28;20171;-60
2023/05/08 06:27:28;;;;;;;4.93;3.70;;;14.40;99.90;;;;;;5067330;28;20487;-58
2023/05/08 06:29:53;;;;;;;5.73;3.20;;;14.50;99.90;;;;;;5062510;28;21040;-60
2023/05/08 06:32:20;;;;;;;5.20;4.17;;;14.50;99.90;;;;;;5056126;28;20167;-60
2023/05/08 06:34:46;;;;;;;5.10;3.93;;;14.50;99.90;;;;;;5056939;28;20199;-60
2023/05/08 06:37:11;;;;;;;5.97;3.90;;;14.50;99.90;;;;;;5058988;28;20484;-60
2023/05/08 06:39:37;;;;;;;4.83;3.40;;;14.40;99.90;;;;;;5053795;28;20208;-60
2023/05/08 06:42:05;;;;;;;5.40;4.00;;;14.40;99.90;;;;;;5064630;28;20248;-61
2023/05/08 06:44:31;;;;;;;3.53;3.23;;;14.40;99.90;;;;;;5065438;28;20645;-61
2023/05/08 06:46:57;;;;;;;5.40;3.60;;;14.40;99.90;;;;;;5058995;28;20441;-60
2023/05/08 06:49:22;;;;;;;3.73;3.43;;;14.40;99.90;;;;;;5060317;28;20683;-60
2023/05/08 06:51:48;;;;;;;9.20;3.47;;;14.40;99.90;;;;;;5057275;28;20177;-60
2023/05/08 06:54:14;;;;;;;3.57;3.27;;;14.40;99.90;;;;;;5067090;28;20163;-61
2023/05/08 06:56:39;;;;;;;3.90;3.60;;;14.50;99.90;;;;;;5063318;28;20678;-61
2023/05/08 06:59:05;;;;;;;4.17;3.20;;;14.50;99.90;;;;;;5061089;28;20167;-60
2023/05/08 07:01:30;;;;;;;3.47;3.17;;;14.60;99.90;;;;;;5068798;28;20171;-60
2023/05/08 07:03:56;;;;;;;3.70;3.20;;;14.60;99.90;;;;;;5067236;28;20618;-60
2023/05/08 07:06:22;;;;;;;4.90;3.30;;;14.70;99.90;;;;;;5064706;28;20202;-60
2023/05/08 07:08:48;;;;;;;3.83;3.40;;;14.80;99.90;;;;;;5061298;28;20589;-60
2023/05/08 07:11:13;;;;;;;3.10;2.90;;;14.90;99.90;;;;;;5054837;28;20177;-60
2023/05/08 07:13:42;;;;;;;4.23;2.63;;;14.90;99.90;;;;;;5054181;28;20883;-60
2023/05/08 07:16:11;;;;;;;3.00;2.77;;;14.90;99.90;;;;;;5079681;28;20232;-60
2023/05/08 07:18:36;;;;;;;5.47;3.40;;;15.00;99.90;;;;;;5060506;28;20824;-61
2023/05/08 07:21:02;;;;;;;3.07;2.80;;;15.00;99.90;;;;;;5061868;28;20433;-61
2023/05/08 07:23:28;;;;;;;3.33;3.00;;;15.00;99.90;;;;;;5056936;28;20178;-61
2023/05/08 07:25:54;;;;;;;4.50;3.60;;;15.00;99.90;;;;;;5056655;28;20171;-61
2023/05/08 07:28:19;;;;;;;4.87;3.10;;;15.00;99.90;;;;;;5065203;28;20245;-61
2023/05/08 07:30:45;;;;;;;4.87;3.43;;;15.00;99.90;;;;;;5060195;28;20671;-61
2023/05/08 07:33:11;;;;;;;6.03;3.70;;;15.00;99.90;;;;;;5055291;28;20194;-61
2023/05/08 07:35:40;;;;;;;3.60;3.30;;;15.10;99.90;;;;;;5054743;28;20177;-61
2023/05/08 07:38:06;;;;;;;4.10;2.93;;;15.10;99.90;;;;;;5061411;28;20707;-60
2023/05/08 07:40:32;;;;;;;3.00;2.70;;;15.20;99.90;;;;;;5057747;28;20422;-61
2023/05/08 07:42:57;;;;;;;2.90;2.70;;;15.20;99.90;;;;;;5064971;28;20174;-60
2023/05/08 07:45:23;;;;;;;3.23;2.80;;;15.20;99.90;;;;;;5058684;28;20634;-61
2023/05/08 07:47:54;;;;;;;3.30;3.00;;;15.30;99.90;;;;;;5055468;28;20855;-60
2023/05/08 07:50:20;;;;;;;5.43;3.20;;;15.40;99.90;;;;;;5066514;28;20514;-61
2023/05/08 07:52:46;;;;;;;3.70;3.30;;;15.50;99.90;;;;;;5064151;28;20571;-61
2023/05/08 07:55:13;;;;;;;5.40;3.47;;;15.50;99.90;;;;;;5060807;28;20916;-61
2023/05/08 07:57:40;;;;;;;4.10;3.03;;;15.60;99.90;;;;;;5059490;28;20487;-60
2023/05/08 08:00:12;;;;;;;3.63;3.33;;;15.60;99.90;;;;;;5065959;28;20721;-60
2023/05/08 08:02:38;;;;;;;3.43;3.03;;;15.70;99.90;;;;;;5061192;28;20853;-60
2023/05/08 08:05:04;;;;;;;3.30;3.00;;;15.70;99.90;;;;;;5058591;28;20433;-60
2023/05/08 08:07:33;;;;;;;3.90;3.00;;;15.80;99.90;;;;;;5058126;28;20766;-60
2023/05/08 08:09:59;;;;;;;3.33;2.93;;;16.00;99.90;;;;;;5055599;28;20452;-60
2023/05/08 08:12:25;;;;;;;3.60;2.70;;;16.10;99.90;;;;;;5062177;28;20437;-61
2023/05/08 08:14:51;;;;;;;4.30;2.97;;;16.20;99.90;;;;;;5059554;28;20421;-60
2023/05/08 08:17:16;;;;;;;2.70;2.50;;;16.30;99.90;;;;;;5063674;28;20447;-60
2023/05/08 08:19:42;;;;;;;4.10;2.70;;;16.40;99.90;;;;;;5054226;28;20242;-60
2023/05/08 08:22:08;;;;;;;4.70;2.80;;;16.50;99.90;;;;;;5083893;22;20221;-56
2023/05/08 08:24:34;;;;;;;3.47;3.00;;;16.50;99.90;;;;;;5058173;28;20174;-54
2023/05/08 08:26:59;;;;;;;2.87;2.67;;;16.70;99.90;;;;;;5066783;28;20218;-54
2023/05/08 08:29:25;;;;;;;3.93;2.50;;;16.80;99.90;;;;;;5060629;28;20332;-54
2023/05/08 08:31:51;;;;;;;3.43;2.70;;;16.90;99.90;;;;;;5062129;28;20648;-56
2023/05/08 08:34:16;;;;;;;3.03;2.30;;;17.00;99.90;;;;;;5038815;28;20167;-54
2023/05/08 08:36:42;;;;;;;3.57;2.40;;;17.20;99.90;;;;;;5032911;28;20188;-54
2023/05/08 08:39:08;;;;;;;2.63;2.23;;;17.30;99.90;;;;;;5033022;28;21438;-54
2023/05/08 08:41:33;;;;;;;2.40;2.20;;;17.30;99.90;;;;;;5023522;28;20255;-57
2023/05/08 08:43:59;;;;;;;3.83;2.60;;;17.30;99.90;;;;;;5045553;28;20174;-55
2023/05/08 08:46:26;;;;;;;2.60;2.40;;;17.20;99.90;;;;;;5042942;28;20262;-57
2023/05/08 08:48:55;;;;;;;6.10;2.63;;;17.10;99.90;;;;;;5048213;28;20817;-55
2023/05/08 08:51:31;;;;;;;2.90;2.60;;;17.00;99.90;;;;;;5051372;28;20509;-55
2023/05/08 08:54:07;;;;;;;6.17;2.83;;;16.90;99.90;;;;;;5042227;28;20471;-55
2023/05/08 08:56:38;;;;;;;4.07;2.70;;;16.80;99.90;;;;;;5040475;28;20479;-55
2023/05/08 08:59:05;;;;;;;6.13;2.93;;;16.60;99.90;;;;;;5044199;28;20425;-54
2023/05/08 09:01:36;;;;;;;3.43;2.43;;;16.50;99.90;;;;;;5036917;28;20506;-54
2023/05/08 09:04:02;;;;;;;4.07;3.17;;;16.40;99.90;;;;;;5045206;28;20479;-56
2023/05/08 09:06:28;;;;;;;6.63;3.07;;;16.30;99.90;;;;;;5047187;28;20422;-55
2023/05/08 09:08:55;;;;;;;3.67;3.07;;;16.20;99.90;;;;;;5044088;28;20190;-54
2023/05/08 09:11:21;;;;;;;3.40;3.10;;;16.20;99.90;;;;;;5046146;28;20524;-54
2023/05/08 09:13:47;;;;;;;3.83;3.30;;;16.20;99.90;;;;;;5038211;28;20844;-54
2023/05/08 09:16:12;;;;;;;3.30;2.93;;;16.30;99.90;;;;;;5036147;28;20178;-57
2023/05/08 09:18:38;;;;;;;3.90;3.27;;;16.40;99.90;;;;;;5045540;28;20225;-54
2023/05/08 09:21:05;;;;;;;4.43;2.97;;;16.60;99.90;;;;;;5042723;28;20182;-54
2023/05/08 09:23:31;;;;;;;4.63;2.40;;;16.90;99.90;;;;;;5040799;28;20207;-54
2023/05/08 09:25:56;;;;;;;4.60;2.83;;;17.10;99.90;;;;;;5043832;28;20433;-53
2023/05/08 09:28:24;;;;;;;2.60;2.40;;;17.40;99.90;;;;;;5047034;28;20256;-53
2023/05/08 09:30:55;;;;;;;5.80;2.53;;;17.70;99.90;;;;;;5047004;28;20698;-55
2023/05/08 09:33:22;;;;;;;2.50;2.30;;;17.90;99.90;;;;;;5047020;28;20441;-53
2023/05/08 09:35:47;;;;;;;2.93;2.20;;;18.20;97.10;;;;;;5048778;28;21073;-53
2023/05/08 09:38:35;;;;;;;5.53;2.30;;;18.20;95.30;;;;;;5039198;28;20418;-53
2023/05/08 09:41:09;;;;;;;4.80;2.40;;;18.20;95.00;;;;;;5047261;28;20172;-51
2023/05/08 09:43:35;;;;;;;3.20;2.73;;;18.30;98.40;;;;;;5051306;28;20496;-54
2023/05/08 09:46:21;;;;;;;2.80;2.57;;;18.30;98.40;;;;;;5039162;28;20927;-54
2023/05/08 09:48:54;;;;;;;4.03;2.40;;;18.20;99.50;;;;;;5038863;28;20195;-55
2023/05/08 09:51:21;;;;;;;2.50;2.30;;;18.10;99.90;;;;;;5050486;28;20487;-53
2023/05/08 09:53:54;;;;;;;2.50;2.23;;;18.00;99.90;;;;;;5045550;28;20430;-54
2023/05/08 09:56:36;;;;;;;6.10;2.40;;;17.80;99.90;;;;;;5039079;28;20441;-54
2023/05/08 09:59:22;;;;;;;3.40;2.70;;;17.70;99.90;;;;;;5044630;28;20428;-54
2023/05/08 10:01:47;;;;;;;3.40;2.10;;;17.60;99.90;;;;;;5034573;28;20464;-57
2023/05/08 10:04:14;;;;;;;3.70;2.10;;;17.50;99.90;;;;;;5043897;28;20464;-56
2023/05/08 10:06:40;;;;;;;4.00;2.60;;;17.50;99.90;;;;;;5042650;28;20250;-58
2023/05/08 10:09:06;;;;;;;4.30;2.27;;;17.50;99.90;;;;;;5048097;28;20667;-56
2023/05/08 10:11:31;;;;;;;4.77;2.67;;;17.60;99.90;;;;;;5041468;28;20179;-55
2023/05/08 10:13:58;;;;;;;7.30;2.80;;;17.60;99.90;;;;;;5046339;28;20433;-54
2023/05/08 10:16:26;;;;;;;3.47;2.80;;;17.70;99.90;;;;;;5034195;28;20219;-55
2023/05/08 10:18:59;;;;;;;4.20;2.80;;;18.00;99.90;;;;;;5043598;28;20444;-54
2023/05/08 10:21:28;;;;;;;4.33;2.70;;;18.40;99.90;;;;;;5040708;28;20474;-55
2023/05/08 10:23:57;;;;;;;4.10;2.40;;;18.70;99.90;;;;;;5044228;28;20491;-56
2023/05/08 10:26:29;;;;;;;4.70;3.27;;;18.80;98.90;;;;;;5044014;28;20817;-54
2023/05/08 10:28:57;;;;;;;4.60;2.73;;;18.80;97.50;;;;;;5039624;28;20457;-55
2023/05/08 10:31:27;;;;;;;3.10;2.67;;;18.70;96.80;;;;;;5042026;28;20441;-55
2023/05/08 10:33:57;;;;;;;4.07;3.13;;;18.50;98.10;;;;;;5029698;28;21081;-55
2023/05/08 10:36:24;;;;;;;4.97;3.30;;;18.40;99.90;;;;;;5048221;28;21082;-55
2023/05/08 10:38:50;;;;;;;3.60;3.30;;;18.20;99.90;;;;;;5041225;28;20533;-56
2023/05/08 10:41:17;;;;;;;3.63;3.33;;;18.10;99.90;;;;;;5041187;28;20457;-55
2023/05/08 10:43:43;;;;;;;3.37;3.07;;;18.00;99.90;;;;;;5046608;28;20807;-55
2023/05/08 10:46:39;;;;;;;6.27;3.43;;;17.90;99.90;;;;;;5038370;28;20437;-55
2023/05/08 10:49:11;;;;;;;3.40;3.10;;;17.80;99.90;;;;;;5042539;28;20604;-58
2023/05/08 10:52:15;;;;;;;5.93;4.00;;;17.70;99.90;;;;;;5044123;28;20504;-58
2023/05/08 10:54:52;;;;;;;3.50;3.20;;;17.60;99.90;;;;;;5039309;28;20420;-56
2023/05/08 10:57:18;;;;;;;4.63;3.57;;;17.50;99.90;;;;;;5038141;28;20430;-55
2023/05/08 10:59:45;;;;;;;3.57;3.27;;;17.40;99.90;;;;;;5047163;28;20453;-55
2023/05/08 11:02:12;;;;;;;4.17;3.23;;;17.30;99.90;;;;;;5040604;28;20191;-57
2023/05/08 11:04:37;;;;;;;5.90;3.10;;;17.20;99.90;;;;;;5039627;28;20933;-56
2023/05/08 11:07:03;;;;;;;4.67;3.90;;;17.20;99.90;;;;;;5040161;28;20440;-56
2023/05/08 11:09:50;;;;;;;4.07;3.67;;;17.10;99.90;;;;;;5041414;28;20199;-58
2023/05/08 11:12:21;;;;;;;5.67;4.03;;;17.10;99.90;;;;;;5037979;28;20851;-53
2023/05/08 11:15:08;;;;;;;4.83;3.67;;;17.10;99.90;;;;;;5036924;28;20444;-54
2023/05/08 11:17:34;;;;;;;3.30;3.00;;;17.10;99.90;;;;;;5038630;28;20487;-53
2023/05/08 11:20:02;;;;;;;5.43;3.67;;;17.00;99.90;;;;;;5042584;28;20425;-57
2023/05/08 11:22:32;;;;;;;4.77;3.37;;;17.00;99.90;;;;;;5043653;28;20211;-54
2023/05/08 11:25:04;;;;;;;3.63;3.27;;;16.90;99.90;;;;;;5041313;28;20464;-57
2023/05/08 11:27:50;;;;;;;4.57;3.57;;;16.90;99.90;;;;;;5031509;28;20457;-55
2023/05/08 11:30:33;;;;;;;4.60;3.73;;;16.80;99.90;;;;;;4994916;28;20558;-55
2023/05/08 11:33:05;;;;;;;7.30;4.67;;;16.70;99.90;;;;;;5039531;28;20580;-54
2023/05/08 11:35:51;;;;;;;9.90;4.30;;;16.60;99.90;;;;;;5041965;28;20417;-55
2023/05/08 11:38:18;;;;;;;11.80;3.90;;;16.50;99.90;;;;;;5042087;28;20505;-57
2023/05/08 11:40:51;;;;;;;5.40;3.60;;;16.40;99.90;;;;;;5039742;28;20764;-55
2023/05/08 11:43:32;;;;;;;5.10;4.00;;;16.30;99.90;;;;;;5045457;28;20484;-54
2023/05/08 11:46:13;;;;;;;6.07;3.63;;;16.20;99.90;;;;;;5043199;28;20483;-54
2023/05/08 11:48:39;;;;;;;12.50;3.23;;;16.20;99.90;;;;;;5038058;28;20480;-56
2023/05/08 11:51:05;;;;;;;5.33;3.27;;;16.10;99.90;;;;;;5042361;28;21166;-56
2023/05/08 11:53:31;;;;;;;8.83;3.67;;;16.00;99.90;;;;;;5039510;28;20272;-57
2023/05/08 11:55:59;;;;;;;5.43;3.70;;;15.90;99.90;;;;;;5045262;28;20416;-56
2023/05/08 11:58:25;;;;;;;6.17;4.00;;;15.80;99.90;;;;;;5047425;28;20445;-55
2023/05/08 12:00:51;;;;;;;3.80;3.27;;;15.70;99.90;;;;;;5040852;28;21067;-55
2023/05/08 12:03:18;;;;;;;7.33;3.80;;;15.50;99.90;;;;;;5043442;28;20936;-56
2023/05/08 12:05:45;;;;;;;4.53;3.40;;;15.40;99.90;;;;;;5035448;28;20659;-54
2023/05/08 12:08:12;;;;;;;7.10;3.20;;;15.30;99.90;;;;;;5042901;28;20418;-56
2023/05/08 12:10:40;;;;;;;3.67;2.90;;;15.30;99.90;;;;;;5042685;28;20449;-55
2023/05/08 12:13:18;;;;;;;3.10;2.80;;;15.20;99.90;;;;;;5028063;28;20580;-59
2023/05/08 12:15:45;;;;;;;2.60;2.40;;;15.20;99.90;;;;;;5035840;28;20417;-56
2023/05/08 12:18:11;;;;;;;3.20;2.90;;;15.10;99.90;;;;;;5041999;28;20737;-55
2023/05/08 12:20:37;;;;;;;3.03;2.70;;;15.00;99.90;;;;;;5038761;28;20429;-56
2023/05/08 12:23:03;;;;;;;2.33;2.10;;;15.00;99.90;;;;;;5039946;28;20206;-55
2023/05/08 12:25:29;;;;;;;3.57;2.93;;;15.00;99.90;;;;;;5043156;28;20168;-55
2023/05/08 12:27:55;;;;;;;10.10;4.73;;;14.90;99.90;;;;;;5038809;28;20436;-57
2023/05/08 12:30:21;;;;;;;4.40;4.00;;;14.90;99.90;;;;;;5042146;28;20238;-56
2023/05/08 12:32:47;;;;;;;4.27;3.83;;;14.80;99.90;;;;;;5032069;28;20461;-58
2023/05/08 12:35:13;;;;;;;4.87;3.03;;;14.80;99.90;;;;;;5035593;28;20483;-55
2023/05/08 12:37:39;;;;;;;3.17;2.87;;;14.80;99.90;;;;;;5034867;28;20417;-56
2023/05/08 12:40:06;;;;;;;3.17;2.87;;;14.80;99.90;;;;;;5033084;28;20183;-58
2023/05/08 12:42:47;;;;;;;3.87;3.43;;;14.70;99.90;;;;;;5043149;28;20526;-57
2023/05/08 12:45:20;;;;;;;5.30;3.30;;;14.70;99.90;;;;;;5036940;28;21058;-55
2023/05/08 12:47:50;;;;;;;5.53;3.20;;;14.70;99.90;;;;;;5037219;28;20429;-57
2023/05/08 12:50:19;;;;;;;3.63;3.33;;;14.70;99.90;;;;;;5042314;28;20977;-55
2023/05/08 12:52:46;;;;;;;4.67;3.20;;;14.80;99.90;;;;;;5036648;28;20454;-56
2023/05/08 12:55:28;;;;;;;4.90;3.70;;;14.70;99.90;;;;;;5035199;28;21860;-56
2023/05/08 12:58:08;;;;;;;3.90;3.50;;;14.80;99.90;;;;;;5046437;28;20530;-54